createdAt,value
2022-08-18T00:02:00.409Z,75386.59
2022-08-18T00:04:36.404Z,75388.59
2022-08-18T00:07:24.480Z,75394.56
2022-08-18T00:09:52.313Z,75398.53
2022-08-18T00:12:32.665Z,75402.50
2022-08-18T00:15:03.972Z,75418.38
2022-08-18T00:17:31.679Z,75420.38
2022-08-18T00:19:59.091Z,75430.31
2022-08-18T00:22:25.740Z,75426.34
2022-08-18T00:24:55.078Z,75436.28
2022-08-18T00:27:30.175Z,75444.22
2022-08-18T00:30:00.145Z,75426.34
2022-08-18T00:32:34.104Z,75426.34
2022-08-18T00:35:06.877Z,75430.31
2022-08-18T00:37:33.484Z,75430.31
2022-08-18T00:40:01.195Z,75436.28
2022-08-18T00:42:30.555Z,75438.25
2022-08-18T00:45:04.273Z,75446.19
2022-08-18T00:47:41.403Z,75442.22
2022-08-18T00:50:21.336Z,75452.16
2022-08-18T00:52:54.988Z,75446.19
2022-08-18T00:55:22.489Z,75450.16
2022-08-18T00:57:52.546Z,75458.13
2022-08-18T01:00:19.574Z,75462.09
2022-08-18T01:02:50.655Z,75466.06
2022-08-18T01:05:20.132Z,75476.00
2022-08-18T01:07:48.727Z,75477.97
2022-08-18T01:10:21.001Z,75491.88
2022-08-18T01:12:53.434Z,75497.84
2022-08-18T01:15:27.985Z,75505.78
2022-08-18T01:18:17.569Z,75517.72
2022-08-18T01:21:21.086Z,75517.72
2022-08-18T01:23:48.896Z,75525.66
2022-08-18T01:26:18.004Z,75531.63
2022-08-18T01:28:46.541Z,75541.56
2022-08-18T01:31:30.562Z,75551.50
2022-08-18T01:33:57.372Z,75545.53
2022-08-18T01:36:24.100Z,75553.47
2022-08-18T01:38:53.144Z,75553.47
2022-08-18T01:41:29.733Z,75561.41
2022-08-18T01:43:59.142Z,75565.41
2022-08-18T01:46:27.426Z,75573.34
2022-08-18T01:48:54.002Z,75573.34
2022-08-18T01:51:40.428Z,75579.31
2022-08-18T01:54:09.258Z,75579.31
2022-08-18T01:56:36.834Z,75581.28
2022-08-18T01:59:03.789Z,75585.25
2022-08-18T02:01:36.206Z,75583.28
2022-08-18T02:04:33.231Z,75589.22
2022-08-18T02:06:54.072Z,75599.16
2022-08-18T02:09:24.149Z,75603.13
2022-08-18T02:11:53.134Z,75603.13
2022-08-18T02:14:25.042Z,75605.13
2022-08-18T02:17:01.456Z,75607.13
2022-08-18T02:19:32.232Z,75607.13
2022-08-18T02:21:58.751Z,75601.16
2022-08-18T02:24:25.263Z,75603.13
2022-08-18T02:26:51.784Z,75605.13
2022-08-18T02:29:18.430Z,75611.09
2022-08-18T02:31:44.953Z,75617.03
2022-08-18T02:34:11.486Z,75611.09
2022-08-18T02:36:38.148Z,75609.09
2022-08-18T02:39:04.722Z,75609.09
2022-08-18T02:41:31.463Z,75617.03
2022-08-18T02:43:58.812Z,75623.00
2022-08-18T02:46:29.840Z,75621.03
2022-08-18T02:48:57.824Z,75625.00
2022-08-18T02:51:26.051Z,75625.00
2022-08-18T02:53:53.857Z,75630.94
2022-08-18T02:56:39.936Z,75626.97
2022-08-18T02:59:10.302Z,75630.94
2022-08-18T03:01:40.608Z,75621.03
2022-08-18T03:04:09.690Z,75623.00
2022-08-18T03:06:38.060Z,75625.00
2022-08-18T03:09:11.683Z,75623.00
2022-08-18T03:11:39.002Z,75623.00
2022-08-18T03:14:06.388Z,75634.94
2022-08-18T03:16:53.268Z,75648.84
2022-08-18T03:19:26.071Z,75650.81
2022-08-18T03:21:53.273Z,75660.75
2022-08-18T03:24:23.021Z,75666.72
2022-08-18T03:26:52.387Z,75674.66
2022-08-18T03:29:20.022Z,75676.66
2022-08-18T03:31:48.917Z,75682.59
2022-08-18T03:34:19.792Z,75688.56
2022-08-18T03:36:47.734Z,75680.63
2022-08-18T03:39:14.338Z,75690.56
2022-08-18T03:41:59.721Z,75682.59
2022-08-18T03:44:32.742Z,75684.59
2022-08-18T03:47:02.906Z,75676.66
2022-08-18T03:49:30.501Z,75676.66
2022-08-18T03:52:00.189Z,75678.63
2022-08-18T03:54:27.148Z,75682.59
2022-08-18T03:56:54.601Z,75684.59
2022-08-18T03:59:24.819Z,75684.59
2022-08-18T04:01:54.197Z,75694.53
2022-08-18T04:04:24.597Z,75688.56
2022-08-18T04:06:55.746Z,75682.59
2022-08-18T04:09:24.754Z,75686.56
2022-08-18T04:11:52.530Z,75690.56
2022-08-18T04:14:24.092Z,75692.53
2022-08-18T04:16:50.928Z,75690.56
2022-08-18T04:19:26.158Z,75686.56
2022-08-18T04:21:56.011Z,75690.56
2022-08-18T04:24:22.609Z,75684.59
2022-08-18T04:26:50.134Z,75690.56
2022-08-18T04:29:21.415Z,75680.63
2022-08-18T04:31:50.293Z,75670.69
2022-08-18T04:34:20.507Z,75664.72
2022-08-18T04:36:47.188Z,75658.75
2022-08-18T04:39:13.823Z,75658.75
2022-08-18T04:41:43.552Z,75650.81
2022-08-18T04:44:12.335Z,75640.88
2022-08-18T04:46:47.547Z,75634.94
2022-08-18T04:49:15.506Z,75628.97
2022-08-18T04:52:37.356Z,75623.00
2022-08-18T04:54:52.139Z,75611.09
2022-08-18T04:57:20.941Z,75609.09
2022-08-18T04:59:49.580Z,75599.16
2022-08-18T05:02:21.252Z,75589.22
2022-08-18T05:04:47.949Z,75589.22
2022-08-18T05:07:22.712Z,75589.22
2022-08-18T05:09:50.111Z,75575.31
2022-08-18T05:12:16.691Z,75565.41
2022-08-18T05:14:45.769Z,75557.44
2022-08-18T05:17:14.995Z,75537.59
2022-08-18T05:19:44.608Z,75525.66
2022-08-18T05:22:17.797Z,75505.78
2022-08-18T05:24:45.713Z,75495.88
2022-08-18T05:27:13.113Z,75483.94
2022-08-18T05:29:41.498Z,75477.97
2022-08-18T05:32:12.292Z,75466.06
2022-08-18T05:35:02.511Z,75458.13
2022-08-18T05:37:40.417Z,75446.19
2022-08-18T05:40:11.407Z,75432.28
2022-08-18T05:42:40.431Z,75422.34
2022-08-18T05:45:13.026Z,75414.41
2022-08-18T05:47:39.647Z,75416.41
2022-08-18T05:50:17.566Z,75416.41
2022-08-18T05:52:51.672Z,75406.47
2022-08-18T05:55:47.744Z,75416.41
2022-08-18T05:58:21.176Z,75420.38
2022-08-18T06:00:58.823Z,75410.44
2022-08-18T06:03:51.407Z,75414.41
2022-08-18T06:06:25.461Z,75408.47
2022-08-18T06:09:13.385Z,75396.53
2022-08-18T06:11:40.246Z,75388.59
2022-08-18T06:14:07.061Z,75370.72
2022-08-18T06:17:04.525Z,75358.78
2022-08-18T06:19:59.521Z,75336.94
2022-08-18T06:22:53.310Z,75321.06
2022-08-18T06:25:46.063Z,75329.00
2022-08-18T06:28:16.019Z,75319.06
2022-08-18T06:30:42.557Z,75321.06
2022-08-18T06:33:09.321Z,75315.09
2022-08-18T06:35:47.531Z,75291.25
2022-08-18T06:38:36.749Z,75297.22
2022-08-18T06:41:10.389Z,75305.16
2022-08-18T06:44:04.257Z,75305.16
2022-08-18T06:46:41.910Z,75287.28
2022-08-18T06:49:13.073Z,75267.41
2022-08-18T06:51:40.942Z,75235.63
2022-08-18T06:54:19.918Z,75215.78
2022-08-18T06:56:51.033Z,75201.88
2022-08-18T06:59:20.482Z,75193.91
2022-08-18T07:01:50.748Z,75187.97
2022-08-18T07:04:36.500Z,75174.06
2022-08-18T07:07:15.216Z,75156.19
2022-08-18T07:09:41.840Z,75136.31
2022-08-18T07:13:22.092Z,75132.34
2022-08-18T07:17:21.783Z,75122.41
2022-08-18T07:20:28.430Z,75110.50
2022-08-18T07:23:08.079Z,75110.50
2022-08-18T07:25:46.780Z,75090.63
2022-08-18T07:28:47.648Z,75056.88
2022-08-18T07:31:19.660Z,75058.84
2022-08-18T07:34:01.320Z,75015.16
2022-08-18T07:36:35.503Z,74985.34
2022-08-18T07:39:10.695Z,74977.41
2022-08-18T07:41:57.450Z,74961.53
2022-08-18T07:44:28.232Z,74955.56
2022-08-18T07:47:04.388Z,74933.72
2022-08-18T07:49:36.605Z,74905.91
2022-08-18T07:52:36.118Z,74886.03
2022-08-18T07:59:38.453Z,74826.47
2022-08-18T08:02:45.856Z,74840.38
2022-08-18T08:09:03.098Z,74798.66
2022-08-18T08:11:35.881Z,74752.97
2022-08-18T08:14:26.726Z,74711.25
2022-08-18T08:17:04.747Z,74675.50
2022-08-18T08:20:00.966Z,74691.41
2022-08-18T08:22:48.657Z,74697.38
2022-08-18T08:25:45.793Z,74693.38
2022-08-18T08:28:15.172Z,74703.31
2022-08-18T08:31:25.506Z,74699.34
2022-08-18T08:34:06.810Z,74713.25
2022-08-18T08:36:41.522Z,74727.16
2022-08-18T08:39:21.399Z,74697.38
2022-08-18T08:42:30.822Z,74713.25
2022-08-18T08:45:01.799Z,74707.28
2022-08-18T08:48:08.532Z,74665.59
2022-08-18T08:50:43.612Z,74639.75
2022-08-18T08:53:48.215Z,74623.88
2022-08-18T08:56:19.370Z,74615.94
2022-08-18T08:58:55.982Z,74580.19
2022-08-18T09:01:48.736Z,74564.28
2022-08-18T09:04:24.447Z,74540.47
2022-08-18T09:07:30.085Z,74540.47
2022-08-18T09:10:35.887Z,74546.41
2022-08-18T09:13:14.521Z,74532.53
2022-08-18T09:15:58.422Z,74514.66
2022-08-18T09:18:28.119Z,74518.63
2022-08-18T09:21:13.452Z,74506.69
2022-08-18T09:23:47.412Z,74478.91
2022-08-18T09:26:39.796Z,74463.00
2022-08-18T09:29:23.600Z,74451.09
2022-08-18T09:32:20.338Z,74435.22
2022-08-18T09:35:14.738Z,74429.25
2022-08-18T09:38:12.560Z,74395.50
2022-08-18T09:41:09.769Z,74371.66
2022-08-18T09:43:53.322Z,74357.75
2022-08-18T09:46:41.707Z,74355.78
2022-08-18T09:49:22.599Z,74353.78
2022-08-18T09:52:24.361Z,74324.00
2022-08-18T09:55:30.856Z,74312.09
2022-08-18T09:58:48.335Z,74292.22
2022-08-18T10:01:34.640Z,74272.38
2022-08-18T10:04:14.884Z,74236.63
2022-08-18T10:06:44.130Z,74222.72
2022-08-18T10:09:26.693Z,74204.84
2022-08-18T10:12:27.261Z,74208.81
2022-08-18T10:15:32.784Z,74192.94
2022-08-18T10:18:19.272Z,74175.06
2022-08-18T10:24:32.209Z,74149.25
2022-08-18T10:26:55.445Z,74135.34
2022-08-18T10:29:24.937Z,74133.34
2022-08-18T10:31:58.558Z,74105.56
2022-08-18T10:34:56.151Z,74099.59
2022-08-18T10:37:49.013Z,74075.78
2022-08-18T10:40:21.503Z,74095.63
2022-08-18T10:46:25.005Z,74083.72
2022-08-18T10:49:13.442Z,74079.75
2022-08-18T10:52:00.552Z,74055.91
2022-08-18T10:54:51.257Z,74047.97
2022-08-18T10:57:52.349Z,74038.03
2022-08-18T11:00:21.673Z,74049.97
2022-08-18T11:03:52.292Z,74016.19
2022-08-18T11:06:24.903Z,74000.31
2022-08-18T11:11:53.477Z,74020.16
2022-08-18T11:15:22.496Z,74016.19
2022-08-18T11:18:04.786Z,73978.47
2022-08-18T11:20:40.277Z,73976.50
2022-08-18T11:23:16.648Z,73976.50
2022-08-18T11:25:45.195Z,73988.41
2022-08-18T11:28:30.190Z,73980.47
2022-08-18T11:30:58.275Z,73980.47
2022-08-18T11:33:25.189Z,73948.69
2022-08-18T11:35:59.481Z,73938.75
2022-08-18T11:38:29.574Z,73928.84
2022-08-18T11:41:14.233Z,73922.88
2022-08-18T11:43:46.738Z,73901.03
2022-08-18T11:46:24.038Z,73907.00
2022-08-18T11:48:54.923Z,73885.16
2022-08-18T11:51:25.538Z,73861.31
2022-08-18T11:54:13.002Z,73829.53
2022-08-18T11:56:39.523Z,73861.31
2022-08-18T12:02:17.365Z,73869.25
2022-08-18T12:04:44.596Z,73853.38
2022-08-18T12:07:13.268Z,73829.53
2022-08-18T12:12:45.920Z,73831.53
2022-08-18T12:15:17.448Z,73787.84
2022-08-18T12:17:52.458Z,73811.69
2022-08-18T12:20:20.943Z,73845.44
2022-08-18T12:22:49.898Z,73865.28
2022-08-18T12:25:24.781Z,73853.38
2022-08-18T12:27:51.667Z,73849.41
2022-08-18T12:30:19.164Z,73853.38
2022-08-18T12:32:50.138Z,73853.38
2022-08-18T12:35:22.173Z,73859.34
2022-08-18T12:38:12.923Z,73895.06
2022-08-18T12:40:36.125Z,73869.25
2022-08-18T12:43:03.230Z,73881.19
2022-08-18T12:45:32.828Z,73895.06
2022-08-18T12:48:04.481Z,73936.78
2022-08-18T12:50:36.182Z,73936.78
2022-08-18T12:53:04.925Z,73914.94
2022-08-18T12:55:37.627Z,73903.00
2022-08-18T12:58:10.236Z,73853.38
2022-08-18T13:00:37.340Z,73833.53
2022-08-18T13:03:03.940Z,73815.66
2022-08-18T13:05:30.464Z,73799.75
2022-08-18T13:08:04.433Z,73805.72
2022-08-18T13:10:35.498Z,73805.72
2022-08-18T13:13:12.117Z,73781.91
2022-08-18T13:15:38.777Z,73783.88
2022-08-18T13:18:14.398Z,73769.97
2022-08-18T13:20:45.172Z,73781.91
2022-08-18T13:23:12.014Z,73762.03
2022-08-18T13:25:39.704Z,73787.84
2022-08-18T13:28:06.761Z,73795.78
2022-08-18T13:30:33.425Z,73829.53
2022-08-18T13:33:05.703Z,73841.47
2022-08-18T13:35:54.077Z,73825.56
2022-08-18T13:38:27.289Z,73805.72
2022-08-18T13:40:57.809Z,73785.88
2022-08-18T13:43:32.224Z,73785.88
2022-08-18T13:45:59.886Z,73805.72
2022-08-18T13:48:28.408Z,73805.72
2022-08-18T13:51:00.004Z,73785.88
2022-08-18T13:53:29.619Z,73768.00
2022-08-18T13:55:58.914Z,73773.94
2022-08-18T13:58:27.160Z,73789.84
2022-08-18T14:01:22.523Z,73785.88
2022-08-18T14:03:47.517Z,73817.63
2022-08-18T14:06:14.852Z,73805.72
2022-08-18T14:11:42.111Z,73811.69
2022-08-18T14:14:09.169Z,73831.53
2022-08-18T14:16:36.304Z,73849.41
2022-08-18T14:19:28.341Z,73855.38
2022-08-18T14:22:14.042Z,73865.28
2022-08-18T14:25:00.977Z,73875.22
2022-08-18T14:27:38.600Z,73875.22
2022-08-18T14:30:08.640Z,73871.25
2022-08-18T14:32:36.136Z,73845.44
2022-08-18T14:35:33.506Z,73839.47
2022-08-18T14:37:53.944Z,73817.63
2022-08-18T14:40:22.990Z,73811.69
2022-08-18T14:42:54.417Z,73789.84
2022-08-18T14:45:34.292Z,73762.03
2022-08-18T14:48:07.532Z,73736.22
2022-08-18T14:50:40.195Z,73680.63
2022-08-18T14:53:16.421Z,73662.75
2022-08-18T14:55:43.392Z,73676.66
2022-08-18T14:58:09.993Z,73678.66
2022-08-18T15:00:53.589Z,73698.50
2022-08-18T15:03:31.298Z,73742.19
2022-08-18T15:06:00.416Z,73754.09
2022-08-18T15:08:27.284Z,73779.91
2022-08-18T15:10:55.683Z,73801.75
2022-08-18T15:13:26.547Z,73827.56
2022-08-18T15:15:55.860Z,73841.47
2022-08-18T15:18:28.724Z,73859.34
2022-08-18T15:21:19.607Z,73897.06
2022-08-18T15:24:19.588Z,73938.75
2022-08-18T15:26:51.474Z,73978.47
2022-08-18T15:29:19.371Z,73990.38
2022-08-18T15:31:57.976Z,74018.19
2022-08-18T15:34:27.463Z,74061.88
2022-08-18T15:36:56.961Z,74123.44
2022-08-18T15:39:24.368Z,74173.06
2022-08-18T15:44:21.031Z,74288.25
2022-08-18T15:46:53.271Z,74320.03
2022-08-18T15:49:22.913Z,74337.91
2022-08-18T15:51:50.132Z,74363.72
2022-08-18T15:54:19.554Z,74355.78
2022-08-18T15:56:57.696Z,74381.59
2022-08-18T15:59:27.055Z,74393.50
2022-08-18T16:02:06.253Z,74397.47
2022-08-18T16:04:39.459Z,74409.38
2022-08-18T16:07:06.895Z,74405.41
2022-08-18T16:09:36.779Z,74393.50
2022-08-18T16:12:04.120Z,74401.44
2022-08-18T16:14:32.161Z,74419.31
2022-08-18T16:17:00.351Z,74411.38
2022-08-18T16:19:30.147Z,74445.13
2022-08-18T16:21:58.313Z,74451.09
2022-08-18T16:24:25.758Z,74457.06
2022-08-18T16:26:52.267Z,74459.03
2022-08-18T16:29:19.414Z,74455.06
2022-08-18T16:31:46.554Z,74463.00
2022-08-18T16:34:13.183Z,74484.84
2022-08-18T16:36:39.692Z,74498.75
2022-08-18T16:41:49.998Z,74544.44
2022-08-18T16:44:17.087Z,74540.47
2022-08-18T16:46:43.696Z,74580.19
2022-08-18T16:49:10.861Z,74606.00
2022-08-18T16:51:37.435Z,74627.84
2022-08-18T16:54:04.486Z,74649.69
2022-08-18T16:56:35.717Z,74707.28
2022-08-18T16:59:21.093Z,74751.00
2022-08-18T17:02:30.364Z,74778.78
2022-08-18T17:05:02.413Z,74806.59
2022-08-18T17:07:34.703Z,74820.50
2022-08-18T17:10:01.817Z,74838.38
2022-08-18T17:12:29.572Z,74840.38
2022-08-18T17:14:56.184Z,74836.38
2022-08-18T17:17:22.939Z,74824.47
2022-08-18T17:19:50.174Z,74852.28
2022-08-18T17:22:17.784Z,74866.19
2022-08-18T17:24:50.482Z,74876.13
2022-08-18T17:27:26.568Z,74903.91
2022-08-18T17:30:02.608Z,74927.75
2022-08-18T17:32:41.750Z,74939.66
2022-08-18T17:35:15.811Z,74959.53
2022-08-18T17:37:51.864Z,74973.44
2022-08-18T17:40:28.747Z,74981.38
2022-08-18T17:42:56.232Z,74985.34
2022-08-18T17:45:24.172Z,74985.34
2022-08-18T17:48:12.798Z,75009.19
2022-08-18T17:51:04.188Z,75017.13
2022-08-18T17:53:32.907Z,75013.16
2022-08-18T17:56:21.067Z,75035.00
2022-08-18T17:58:55.223Z,75027.06
2022-08-18T18:01:23.546Z,75058.84
2022-08-18T18:03:50.837Z,75084.66
2022-08-18T18:06:38.453Z,75094.59
2022-08-18T18:09:08.857Z,75106.53
2022-08-18T18:11:42.327Z,75126.38
2022-08-18T18:14:37.586Z,75130.34
2022-08-18T18:17:14.424Z,75136.31
2022-08-18T18:19:48.234Z,75146.25
2022-08-18T18:22:24.030Z,75136.31
2022-08-18T18:24:51.993Z,75138.31
2022-08-18T18:27:43.468Z,75134.34
2022-08-18T18:30:16.773Z,75128.38
2022-08-18T18:33:13.995Z,75132.34
2022-08-18T18:36:00.576Z,75132.34
2022-08-18T18:38:33.545Z,75138.31
2022-08-18T18:41:13.134Z,75142.28
2022-08-18T18:43:43.556Z,75124.41
2022-08-18T18:46:18.381Z,75146.25
2022-08-18T18:49:13.616Z,75142.28
2022-08-18T18:52:04.772Z,75132.34
2022-08-18T18:54:34.283Z,75126.38
2022-08-18T18:57:02.527Z,75118.44
2022-08-18T18:59:48.056Z,75132.34
2022-08-18T19:02:33.924Z,75126.38
2022-08-18T19:05:29.851Z,75132.34
2022-08-18T19:08:15.562Z,75140.28
2022-08-18T19:11:00.378Z,75140.28
2022-08-18T19:13:35.152Z,75156.19
2022-08-18T19:16:23.355Z,75160.16
2022-08-18T19:19:35.828Z,75166.09
2022-08-18T19:22:03.122Z,75152.22
2022-08-18T19:24:37.580Z,75154.19
2022-08-18T19:27:06.975Z,75148.22
2022-08-18T19:29:40.980Z,75148.22
2022-08-18T19:32:19.905Z,75146.25
2022-08-18T19:34:52.667Z,75146.25
2022-08-18T19:37:44.768Z,75152.22
2022-08-18T19:40:27.524Z,75148.22
2022-08-18T19:43:26.731Z,75146.25
2022-08-18T19:45:55.987Z,75150.22
2022-08-18T19:48:47.687Z,75156.19
2022-08-18T19:51:29.082Z,75152.22
2022-08-18T19:54:17.613Z,75152.22
2022-08-18T19:57:08.663Z,75142.28
2022-08-18T20:00:10.762Z,75120.44
2022-08-18T20:03:06.617Z,75138.31
2022-08-18T20:05:42.284Z,75130.34
2022-08-18T20:08:38.744Z,75148.22
2022-08-18T20:11:08.120Z,75166.09
2022-08-18T20:13:44.680Z,75189.94
2022-08-18T20:16:24.491Z,75189.94
2022-08-18T20:18:56.406Z,75191.94
2022-08-18T20:21:41.582Z,75201.88
2022-08-18T20:24:33.287Z,75199.88
2022-08-18T20:27:32.899Z,75191.94
2022-08-18T20:30:29.691Z,75182.00
2022-08-18T20:33:11.425Z,75172.06
2022-08-18T20:35:40.984Z,75158.16
2022-08-18T20:38:34.957Z,75170.09
2022-08-18T20:41:20.207Z,75182.00
2022-08-18T20:43:51.166Z,75166.09
2022-08-18T20:46:17.763Z,75168.09
2022-08-18T20:49:20.498Z,75184.00
2022-08-18T20:51:58.570Z,75180.00
2022-08-18T20:54:57.403Z,75170.09
2022-08-18T20:57:27.147Z,75174.06
2022-08-18T21:00:22.657Z,75160.16
2022-08-18T21:02:56.414Z,75182.00
2022-08-18T21:05:31.570Z,75176.03
2022-08-18T21:08:16.089Z,75184.00
2022-08-18T21:10:55.362Z,75187.97
2022-08-18T21:13:46.254Z,75185.97
2022-08-18T21:16:37.939Z,75172.06
2022-08-18T21:19:40.538Z,75184.00
2022-08-18T21:22:11.039Z,75191.94
2022-08-18T21:24:42.530Z,75207.81
2022-08-18T21:27:35.339Z,75219.75
2022-08-18T21:30:15.435Z,75219.75
2022-08-18T21:32:43.458Z,75235.63
2022-08-18T21:35:40.591Z,75233.66
2022-08-18T21:38:11.854Z,75253.50
2022-08-18T21:40:44.713Z,75253.50
2022-08-18T21:43:13.716Z,75275.38
2022-08-18T21:45:56.216Z,75273.38
2022-08-18T21:48:27.687Z,75281.31
2022-08-18T21:51:00.492Z,75293.25
2022-08-18T21:53:31.184Z,75293.25
2022-08-18T21:55:58.899Z,75287.28
2022-08-18T21:58:42.119Z,75293.25
2022-08-18T22:01:19.796Z,75323.03
2022-08-18T22:04:00.075Z,75340.91
2022-08-18T22:06:32.795Z,75348.88
2022-08-18T22:09:40.187Z,75346.88
2022-08-18T22:12:46.295Z,75354.81
2022-08-18T22:15:16.061Z,75346.88
2022-08-18T22:17:56.132Z,75330.97
2022-08-18T22:20:46.702Z,75327.00
2022-08-18T22:23:31.926Z,75327.00
2022-08-18T22:26:12.403Z,75334.97
2022-08-18T22:29:10.437Z,75334.97
2022-08-18T22:31:46.580Z,75342.91
2022-08-18T22:34:27.996Z,75342.91
2022-08-18T22:37:09.398Z,75336.94
2022-08-18T22:39:57.231Z,75336.94
2022-08-18T22:42:27.227Z,75332.97
2022-08-18T22:44:54.039Z,75330.97
2022-08-18T22:47:21.450Z,75330.97
2022-08-18T22:49:48.834Z,75352.84
2022-08-18T22:52:19.961Z,75378.66
2022-08-18T22:54:46.585Z,75384.63
2022-08-18T22:57:18.495Z,75386.59
2022-08-18T22:59:50.166Z,75402.50
2022-08-18T23:02:21.819Z,75416.41
2022-08-18T23:04:49.071Z,75416.41
2022-08-18T23:07:15.956Z,75424.34
2022-08-18T23:09:42.581Z,75420.38
2022-08-18T23:12:13.720Z,75418.38
2022-08-18T23:14:44.485Z,75422.34
2022-08-18T23:17:11.084Z,75424.34
2022-08-18T23:19:37.996Z,75426.34
2022-08-18T23:22:05.381Z,75428.31
2022-08-18T23:24:31.962Z,75428.31
2022-08-18T23:26:59.228Z,75422.34
2022-08-18T23:29:27.673Z,75428.31
2022-08-18T23:31:54.417Z,75410.44
2022-08-18T23:34:23.154Z,75426.34
2022-08-18T23:37:01.527Z,75428.31
2022-08-18T23:39:30.500Z,75432.28
2022-08-18T23:41:58.108Z,75440.25
2022-08-18T23:44:27.715Z,75454.16
2022-08-18T23:46:55.528Z,75452.16
2022-08-18T23:49:23.390Z,75483.94
2022-08-18T23:51:54.646Z,75474.00
2022-08-18T23:54:24.495Z,75472.03
2022-08-18T23:56:51.356Z,75476.00
2022-08-18T23:59:31.837Z,75476.00
